M/V Le Conte — WZE4270 — position and weather

sailwx.info

Track history (hours):
 
Tides and Currents Weather Stations Pressure Air Temp Water Temp Dewpoint Dewpoint Depression Visibility Wind Speed Wind Dir Waves Ship Positions

M/V Le Conte

Owner: ALASKA MARINE HIGHWAY SYSTEM, JUNEAU, AK. More information available from US FCC via Universal Licensing System and Coast Guard Vessel Documentation Center.

Last reported at 2019-Sep-09 23:22 UTC. Time now 2019-Sep-21 11:11 UTC.
Position N 58°15' W 135°22'.
Warning: this ship's position is 11 days out of date.

Type: Passenger vessel. MMSI: 338761000.

Date/timePositionNaut miles runAvg speedWind from/ knotsBaromVisibWave heightAir tempDewpointWater temp
2019-Sep-09 23:22N 58°15' W 135°22'615.6
2019-Sep-09 23:00N 58°20' W 135°26'714.8
2019-Sep-09 22:30N 58°23' W 135°39'3 5.3
2019-Sep-09 22:00N 58°23' W 135°44'0 0.0
2019-Sep-09 21:30N 58°23' W 135°44'1 2.2
2019-Sep-09 21:00N 58°22' W 135°45'815.4
2019-Sep-09 20:30N 58°16' W 135°37'814.9
2019-Sep-09 19:59N 58°10' W 135°28'1 0.8
2019-Sep-09 18:25N 58°09' W 135°27'  
2019-Sep-05 01:27N 58°15' W 135°22'715.6
2019-Sep-05 01:00N 58°21' W 135°28'714.6
2019-Sep-05 00:30N 58°23' W 135°41'1 2.4
2019-Sep-04 23:56N 58°23' W 135°44'0 0.0
2019-Sep-04 23:26N 58°23' W 135°44'2 4.6
2019-Sep-04 23:00N 58°21' W 135°45'915.2
2019-Sep-04 22:25N 58°15' W 135°34'713.8
2019-Sep-04 21:56N 58°09' W 135°28'6 0.1
2019-Sep-03 00:10N 58°09' W 135°17'315.1
2019-Sep-02 23:59N 58°09' W 135°22'4 1.8
2019-Sep-02 21:52N 58°07' W 135°28'511.7
2019-Sep-02 21:29N 58°12' W 135°28'715.5
2019-Sep-02 21:00N 58°17' W 135°39'714.1
2019-Sep-02 20:31N 58°23' W 135°44'0 0.7
2019-Sep-02 19:56N 58°23' W 135°44'0 0.0
2019-Sep-02 19:26N 58°23' W 135°44'0 1.1
2019-Sep-02 19:00N 58°23' W 135°44'612.3
2019-Sep-02 18:30N 58°17' W 135°40'815.7
2019-Sep-02 18:00N 58°14' W 135°26'7 0.7
2019-Sep-02 06:57N 58°11' W 135°13'716.0
2019-Sep-02 06:30N 58°14' W 135°26'815.8
2019-Sep-02 06:00N 58°17' W 135°39'713.2
2019-Sep-02 05:31N 58°23' W 135°44'0 0.0
2019-Sep-02 04:55N 58°23' W 135°44'3 6.3
2019-Sep-02 04:30N 58°22' W 135°48'815.2
2019-Sep-02 04:00N 58°20' W 136°02'713.7
2019-Sep-02 03:30N 58°18' W 136°14'3 0.5
2019-Sep-01 21:43N 58°17' W 136°20'313.0
2019-Sep-01 21:30N 58°18' W 136°15'713.8
2019-Sep-01 21:00N 58°20' W 136°02'713.5
2019-Sep-01 20:30N 58°22' W 135°50'4 5.9
2019-Sep-01 19:55N 58°23' W 135°44'0 0.0
2019-Sep-01 19:29N 58°23' W 135°44'4 8.6
2019-Sep-01 19:00N 58°23' W 135°36'714.4
2019-Sep-01 18:30N 58°19' W 135°25'7 0.2
2019-Aug-31 00:22N 58°13' W 135°18'514.6
2019-Aug-31 00:00N 58°17' W 135°23'714.7
2019-Aug-30 23:30N 58°22' W 135°33'  
Track history (hours):
 
Tides and Currents Weather Stations Pressure Air Temp Water Temp Dewpoint Dewpoint Depression Visibility Wind Speed Wind Dir Waves Ship Positions

M/V Le Conte

Owner: ALASKA MARINE HIGHWAY SYSTEM, JUNEAU, AK. More information available from US FCC via Universal Licensing System and Coast Guard Vessel Documentation Center.

Last reported at 2019-Sep-09 23:22 UTC. Time now 2019-Sep-21 11:11 UTC.
Position N 58°15' W 135°22'.
Warning: this ship's position is 11 days out of date.

Type: Passenger vessel. MMSI: 338761000.

Date/timePositionNaut miles runAvg speedWind from/ knotsBaromVisibWave heightAir tempDewpointWater temp
2019-Sep-09 23:22N 58°15' W 135°22'615.6
2019-Sep-09 23:00N 58°20' W 135°26'714.8
2019-Sep-09 22:30N 58°23' W 135°39'3 5.3
2019-Sep-09 22:00N 58°23' W 135°44'0 0.0
2019-Sep-09 21:30N 58°23' W 135°44'1 2.2
2019-Sep-09 21:00N 58°22' W 135°45'815.4
2019-Sep-09 20:30N 58°16' W 135°37'814.9
2019-Sep-09 19:59N 58°10' W 135°28'1 0.8
2019-Sep-09 18:25N 58°09' W 135°27'  
2019-Sep-05 01:27N 58°15' W 135°22'715.6
2019-Sep-05 01:00N 58°21' W 135°28'714.6
2019-Sep-05 00:30N 58°23' W 135°41'1 2.4
2019-Sep-04 23:56N 58°23' W 135°44'0 0.0
2019-Sep-04 23:26N 58°23' W 135°44'2 4.6
2019-Sep-04 23:00N 58°21' W 135°45'915.2
2019-Sep-04 22:25N 58°15' W 135°34'713.8
2019-Sep-04 21:56N 58°09' W 135°28'6 0.1
2019-Sep-03 00:10N 58°09' W 135°17'315.1
2019-Sep-02 23:59N 58°09' W 135°22'4 1.8
2019-Sep-02 21:52N 58°07' W 135°28'511.7
2019-Sep-02 21:29N 58°12' W 135°28'715.5
2019-Sep-02 21:00N 58°17' W 135°39'714.1
2019-Sep-02 20:31N 58°23' W 135°44'0 0.7
2019-Sep-02 19:56N 58°23' W 135°44'0 0.0
2019-Sep-02 19:26N 58°23' W 135°44'0 1.1
2019-Sep-02 19:00N 58°23' W 135°44'612.3
2019-Sep-02 18:30N 58°17' W 135°40'815.7
2019-Sep-02 18:00N 58°14' W 135°26'7 0.7
2019-Sep-02 06:57N 58°11' W 135°13'716.0
2019-Sep-02 06:30N 58°14' W 135°26'815.8
2019-Sep-02 06:00N 58°17' W 135°39'713.2
2019-Sep-02 05:31N 58°23' W 135°44'0 0.0
2019-Sep-02 04:55N 58°23' W 135°44'3 6.3
2019-Sep-02 04:30N 58°22' W 135°48'815.2
2019-Sep-02 04:00N 58°20' W 136°02'713.7
2019-Sep-02 03:30N 58°18' W 136°14'3 0.5
2019-Sep-01 21:43N 58°17' W 136°20'313.0
2019-Sep-01 21:30N 58°18' W 136°15'713.8
2019-Sep-01 21:00N 58°20' W 136°02'713.5
2019-Sep-01 20:30N 58°22' W 135°50'4 5.9
2019-Sep-01 19:55N 58°23' W 135°44'0 0.0
2019-Sep-01 19:29N 58°23' W 135°44'4 8.6
2019-Sep-01 19:00N 58°23' W 135°36'714.4
2019-Sep-01 18:30N 58°19' W 135°25'7 0.2
2019-Aug-31 00:22N 58°13' W 135°18'514.6
2019-Aug-31 00:00N 58°17' W 135°23'714.7
2019-Aug-30 23:30N 58°22' W 135°33'  

Dump ship's entire track history